sensor_id;sensor_type;location;lat;lon;timestamp;pressure;altitude;pressure_sealevel;temperature;humidity
72892;BME280;61032;50.782;6.818;2023-06-22T00:00:23;100667.63;;;23.37;58.20
72892;BME280;61032;50.782;6.818;2023-06-22T00:01:24;100661.59;;;23.38;57.90
72892;BME280;61032;50.782;6.818;2023-06-22T00:02:24;100671.19;;;23.44;57.96
72892;BME280;61032;50.782;6.818;2023-06-22T00:03:25;100673.16;;;23.47;57.39
72892;BME280;61032;50.782;6.818;2023-06-22T00:04:26;100670.72;;;23.53;56.60
72892;BME280;61032;50.782;6.818;2023-06-22T00:05:27;100681.91;;;23.60;56.47
72892;BME280;61032;50.782;6.818;2023-06-22T00:06:27;100677.09;;;23.57;55.87
72892;BME280;61032;50.782;6.818;2023-06-22T00:07:28;100681.91;;;23.60;55.86
72892;BME280;61032;50.782;6.818;2023-06-22T00:08:28;100676.22;;;23.67;55.19
72892;BME280;61032;50.782;6.818;2023-06-22T00:09:29;100682.16;;;23.76;55.25
72892;BME280;61032;50.782;6.818;2023-06-22T00:10:30;100685.75;;;23.77;54.54
72892;BME280;61032;50.782;6.818;2023-06-22T00:11:31;100680.53;;;23.79;54.28
72892;BME280;61032;50.782;6.818;2023-06-22T00:12:33;100686.59;;;23.70;54.79
72892;BME280;61032;50.782;6.818;2023-06-22T00:13:33;100687.06;;;23.65;54.94
72892;BME280;61032;50.782;6.818;2023-06-22T00:14:34;100688.28;;;23.64;54.96
72892;BME280;61032;50.782;6.818;2023-06-22T00:15:35;100683.13;;;23.59;54.68
72892;BME280;61032;50.782;6.818;2023-06-22T00:16:35;100685.50;;;23.60;54.65
72892;BME280;61032;50.782;6.818;2023-06-22T00:17:36;100691.91;;;23.61;54.65
72892;BME280;61032;50.782;6.818;2023-06-22T00:18:36;100699.16;;;23.58;54.52
72892;BME280;61032;50.782;6.818;2023-06-22T00:19:36;100695.56;;;23.58;54.69
72892;BME280;61032;50.782;6.818;2023-06-22T00:20:41;100690.38;;;23.53;54.90
72892;BME280;61032;50.782;6.818;2023-06-22T00:21:42;100687.13;;;23.58;54.51
72892;BME280;61032;50.782;6.818;2023-06-22T00:22:43;100691.50;;;23.62;54.44
72892;BME280;61032;50.782;6.818;2023-06-22T00:23:43;100687.50;;;23.60;54.72
72892;BME280;61032;50.782;6.818;2023-06-22T00:24:44;100677.09;;;23.60;54.88
72892;BME280;61032;50.782;6.818;2023-06-22T00:25:44;100679.09;;;23.60;55.11
72892;BME280;61032;50.782;6.818;2023-06-22T00:26:44;100680.69;;;23.61;55.17
72892;BME280;61032;50.782;6.818;2023-06-22T00:27:45;100677.47;;;23.62;54.80
72892;BME280;61032;50.782;6.818;2023-06-22T00:28:45;100680.31;;;23.59;55.28
72892;BME280;61032;50.782;6.818;2023-06-22T00:29:45;100682.34;;;23.55;55.12
72892;BME280;61032;50.782;6.818;2023-06-22T00:30:46;100682.34;;;23.51;55.45
72892;BME280;61032;50.782;6.818;2023-06-22T00:31:46;100678.31;;;23.56;55.14
72892;BME280;61032;50.782;6.818;2023-06-22T00:32:46;100683.50;;;23.61;55.00
72892;BME280;61032;50.782;6.818;2023-06-22T00:33:46;100676.69;;;23.58;54.88
72892;BME280;61032;50.782;6.818;2023-06-22T00:34:47;100687.13;;;23.58;54.65
72892;BME280;61032;50.782;6.818;2023-06-22T00:35:48;100689.50;;;23.63;54.57
72892;BME280;61032;50.782;6.818;2023-06-22T00:36:48;100681.03;;;23.67;54.20
72892;BME280;61032;50.782;6.818;2023-06-22T00:37:48;100691.50;;;23.62;54.85
72892;BME280;61032;50.782;6.818;2023-06-22T00:38:49;100679.84;;;23.68;54.55
72892;BME280;61032;50.782;6.818;2023-06-22T00:39:51;100686.16;;;23.75;54.20
72892;BME280;61032;50.782;6.818;2023-06-22T00:40:51;100680.94;;;23.77;54.01
72892;BME280;61032;50.782;6.818;2023-06-22T00:41:52;100688.91;;;23.82;53.96
72892;BME280;61032;50.782;6.818;2023-06-22T00:42:52;100671.63;;;23.87;53.64
72892;BME280;61032;50.782;6.818;2023-06-22T00:43:52;100694.09;;;23.87;53.87
72892;BME280;61032;50.782;6.818;2023-06-22T00:44:53;100687.25;;;23.88;53.43
72892;BME280;61032;50.782;6.818;2023-06-22T00:45:55;100693.59;;;23.96;53.22
72892;BME280;61032;50.782;6.818;2023-06-22T00:46:56;100689.53;;;24.01;53.51
72892;BME280;61032;50.782;6.818;2023-06-22T00:47:57;100685.94;;;23.96;53.27
72892;BME280;61032;50.782;6.818;2023-06-22T00:48:58;100676.34;;;23.94;52.97
72892;BME280;61032;50.782;6.818;2023-06-22T00:50:00;100692.91;;;23.85;53.33
72892;BME280;61032;50.782;6.818;2023-06-22T00:51:01;100683.72;;;23.81;53.52
72892;BME280;61032;50.782;6.818;2023-06-22T00:52:01;100688.56;;;23.77;53.43
72892;BME280;61032;50.782;6.818;2023-06-22T00:53:07;100687.00;;;23.72;53.38
72892;BME280;61032;50.782;6.818;2023-06-22T00:54:08;100687.84;;;23.69;53.52
72892;BME280;61032;50.782;6.818;2023-06-22T00:55:09;100685.47;;;23.64;53.90
72892;BME280;61032;50.782;6.818;2023-06-22T00:56:10;100681.91;;;23.60;54.07
72892;BME280;61032;50.782;6.818;2023-06-22T00:57:13;100682.28;;;23.62;54.26
72892;BME280;61032;50.782;6.818;2023-06-22T00:58:15;100682.28;;;23.62;54.08
72892;BME280;61032;50.782;6.818;2023-06-22T00:59:16;100686.28;;;23.64;53.76
72892;BME280;61032;50.782;6.818;2023-06-22T01:00:17;100677.50;;;23.59;54.42
72892;BME280;61032;50.782;6.818;2023-06-22T01:01:20;100685.91;;;23.62;54.47
72892;BME280;61032;50.782;6.818;2023-06-22T01:02:23;100669.47;;;23.61;54.59
72892;BME280;61032;50.782;6.818;2023-06-22T01:03:23;100669.47;;;23.61;54.32
72892;BME280;61032;50.782;6.818;2023-06-22T01:04:34;100676.72;;;23.55;54.57
72892;BME280;61032;50.782;6.818;2023-06-22T01:05:36;100670.31;;;23.51;54.39
72892;BME280;61032;50.782;6.818;2023-06-22T01:06:38;100668.78;;;23.46;54.29
72892;BME280;61032;50.782;6.818;2023-06-22T01:09:22;100668.00;;;23.42;54.79
72892;BME280;61032;50.782;6.818;2023-06-22T01:10:35;100667.59;;;23.40;55.01
72892;BME280;61032;50.782;6.818;2023-06-22T01:11:42;100664.38;;;23.42;55.19
72892;BME280;61032;50.782;6.818;2023-06-22T01:12:49;100660.75;;;23.45;54.75
72892;BME280;61032;50.782;6.818;2023-06-22T01:14:12;100662.75;;;23.44;55.02
72892;BME280;61032;50.782;6.818;2023-06-22T01:15:21;100662.75;;;23.44;55.04
72892;BME280;61032;50.782;6.818;2023-06-22T01:16:26;100661.16;;;23.47;54.55
72892;BME280;61032;50.782;6.818;2023-06-22T01:17:27;100657.53;;;23.46;54.98
72892;BME280;61032;50.782;6.818;2023-06-22T01:18:30;100657.53;;;23.46;54.90
72892;BME280;61032;50.782;6.818;2023-06-22T01:19:49;100659.06;;;23.51;54.74
72892;BME280;61032;50.782;6.818;2023-06-22T01:20:56;100659.94;;;23.48;54.83
72892;BME280;61032;50.782;6.818;2023-06-22T01:21:57;100656.75;;;23.42;55.08
72892;BME280;61032;50.782;6.818;2023-06-22T01:23:09;100661.97;;;23.44;54.87
72892;BME280;61032;50.782;6.818;2023-06-22T01:24:22;100653.16;;;23.42;55.24
72892;BME280;61032;50.782;6.818;2023-06-22T01:25:33;100651.94;;;23.43;55.27
72892;BME280;61032;50.782;6.818;2023-06-22T01:26:42;100645.53;;;23.42;54.89
72892;BME280;61032;50.782;6.818;2023-06-22T01:27:56;100644.75;;;23.42;54.66
72892;BME280;61032;50.782;6.818;2023-06-22T01:28:58;100647.56;;;23.38;54.69
72892;BME280;61032;50.782;6.818;2023-06-22T01:30:00;100639.56;;;23.37;54.75
72892;BME280;61032;50.782;6.818;2023-06-22T01:31:01;100641.56;;;23.36;54.72
72892;BME280;61032;50.782;6.818;2023-06-22T01:32:05;100647.22;;;23.33;54.77
72892;BME280;61032;50.782;6.818;2023-06-22T01:33:07;100638.41;;;23.30;54.78
72892;BME280;61032;50.782;6.818;2023-06-22T01:34:11;100645.22;;;23.29;54.61
72892;BME280;61032;50.782;6.818;2023-06-22T01:35:13;100640.78;;;23.36;54.59
72892;BME280;61032;50.782;6.818;2023-06-22T01:36:16;100646.38;;;23.36;54.25
72892;BME280;61032;50.782;6.818;2023-06-22T01:37:17;100637.97;;;23.36;54.03
72892;BME280;61032;50.782;6.818;2023-06-22T01:38:18;100639.94;;;23.39;54.51
72892;BME280;61032;50.782;6.818;2023-06-22T01:39:18;100641.53;;;23.40;53.85
72892;BME280;61032;50.782;6.818;2023-06-22T01:40:19;100642.72;;;23.42;54.33
72892;BME280;61032;50.782;6.818;2023-06-22T01:41:24;100643.09;;;23.48;54.04
72892;BME280;61032;50.782;6.818;2023-06-22T01:42:25;100633.44;;;23.49;53.71
72892;BME280;61032;50.782;6.818;2023-06-22T01:43:26;100641.44;;;23.54;53.43
72892;BME280;61032;50.782;6.818;2023-06-22T01:44:28;100624.16;;;23.59;53.08
72892;BME280;61032;50.782;6.818;2023-06-22T01:45:29;100639.03;;;23.52;53.19
72892;BME280;61032;50.782;6.818;2023-06-22T01:46:29;100635.81;;;23.54;53.38
72892;BME280;61032;50.782;6.818;2023-06-22T01:47:29;100639.84;;;23.49;53.41
72892;BME280;61032;50.782;6.818;2023-06-22T01:48:30;100639.50;;;23.44;53.72
72892;BME280;61032;50.782;6.818;2023-06-22T01:49:31;100641.13;;;23.41;53.92
72892;BME280;61032;50.782;6.818;2023-06-22T01:50:32;100637.53;;;23.41;53.99
72892;BME280;61032;50.782;6.818;2023-06-22T01:51:32;100641.53;;;23.40;53.85
72892;BME280;61032;50.782;6.818;2023-06-22T01:52:33;100631.53;;;23.39;53.73
72892;BME280;61032;50.782;6.818;2023-06-22T01:53:34;100632.31;;;23.43;53.75
72892;BME280;61032;50.782;6.818;2023-06-22T01:54:34;100642.31;;;23.44;53.68
72892;BME280;61032;50.782;6.818;2023-06-22T01:55:34;100638.69;;;23.47;53.58
72892;BME280;61032;50.782;6.818;2023-06-22T01:56:35;100637.47;;;23.48;53.55
72892;BME280;61032;50.782;6.818;2023-06-22T01:57:35;100640.28;;;23.48;53.51
72892;BME280;61032;50.782;6.818;2023-06-22T02:00:00;100640.28;;;23.48;53.39
72892;BME280;61032;50.782;6.818;2023-06-22T02:01:12;100643.88;;;23.48;53.48
72892;BME280;61032;50.782;6.818;2023-06-22T02:02:15;100630.25;;;23.47;53.31
72892;BME280;61032;50.782;6.818;2023-06-22T02:03:19;100640.63;;;23.50;53.45
72892;BME280;61032;50.782;6.818;2023-06-22T02:04:27;100631.41;;;23.49;53.31
72892;BME280;61032;50.782;6.818;2023-06-22T02:05:31;100630.22;;;23.50;53.48
72892;BME280;61032;50.782;6.818;2023-06-22T02:06:39;100633.81;;;23.51;53.53
72892;BME280;61032;50.782;6.818;2023-06-22T02:07:47;100635.44;;;23.52;53.44
72892;BME280;61032;50.782;6.818;2023-06-22T02:08:53;100635.09;;;23.46;53.73
72892;BME280;61032;50.782;6.818;2023-06-22T02:09:54;100636.72;;;23.44;53.72
72892;BME280;61032;50.782;6.818;2023-06-22T02:10:57;100636.31;;;23.42;53.57
72892;BME280;61032;50.782;6.818;2023-06-22T02:11:59;100641.09;;;23.45;54.05
72892;BME280;61032;50.782;6.818;2023-06-22T02:13:06;100639.50;;;23.44;54.32
72892;BME280;61032;50.782;6.818;2023-06-22T02:14:07;100635.91;;;23.43;54.42
72892;BME280;61032;50.782;6.818;2023-06-22T02:15:09;100641.91;;;23.45;54.90
72892;BME280;61032;50.782;6.818;2023-06-22T02:16:11;100633.50;;;23.45;55.17
72892;BME280;61032;50.782;6.818;2023-06-22T02:17:12;100637.16;;;23.39;55.57
72892;BME280;61032;50.782;6.818;2023-06-22T02:18:13;100636.41;;;23.31;56.02
72892;BME280;61032;50.782;6.818;2023-06-22T02:19:13;100636.91;;;23.19;56.68
72892;BME280;61032;50.782;6.818;2023-06-22T02:20:18;100640.91;;;23.21;56.82
72892;BME280;61032;50.782;6.818;2023-06-22T02:21:19;100640.47;;;23.26;56.86
72892;BME280;61032;50.782;6.818;2023-06-22T02:22:20;100638.41;;;23.30;56.56
72892;BME280;61032;50.782;6.818;2023-06-22T02:23:20;100638.38;;;23.34;56.69
72892;BME280;61032;50.782;6.818;2023-06-22T02:24:21;100644.78;;;23.35;57.02
72892;BME280;61032;50.782;6.818;2023-06-22T02:25:24;100643.19;;;23.34;56.90
72892;BME280;61032;50.782;6.818;2023-06-22T02:26:25;100642.00;;;23.35;56.78
72892;BME280;61032;50.782;6.818;2023-06-22T02:27:26;100641.63;;;23.29;57.25
72892;BME280;61032;50.782;6.818;2023-06-22T02:28:26;100644.09;;;23.23;57.67
72892;BME280;61032;50.782;6.818;2023-06-22T02:29:27;100639.34;;;23.13;58.63
72892;BME280;61032;50.782;6.818;2023-06-22T02:30:27;100636.97;;;23.08;58.95
72892;BME280;61032;50.782;6.818;2023-06-22T02:31:28;100637.06;;;22.98;59.50
72892;BME280;61032;50.782;6.818;2023-06-22T02:32:30;100638.69;;;22.95;59.69
72892;BME280;61032;50.782;6.818;2023-06-22T02:33:34;100641.50;;;22.91;59.90
72892;BME280;61032;50.782;6.818;2023-06-22T02:34:35;100640.69;;;22.94;59.92
72892;BME280;61032;50.782;6.818;2023-06-22T02:35:36;100637.47;;;22.96;60.11
72892;BME280;61032;50.782;6.818;2023-06-22T02:36:37;100636.31;;;22.90;60.36
72892;BME280;61032;50.782;6.818;2023-06-22T02:37:38;100644.41;;;22.81;60.73
72892;BME280;61032;50.782;6.818;2023-06-22T02:38:43;100637.22;;;22.66;61.06
72892;BME280;61032;50.782;6.818;2023-06-22T02:39:48;100644.06;;;22.65;61.16
72892;BME280;61032;50.782;6.818;2023-06-22T02:40:48;100634.81;;;22.68;61.46
72892;BME280;61032;50.782;6.818;2023-06-22T02:41:53;100639.63;;;22.71;61.27
72892;BME280;61032;50.782;6.818;2023-06-22T02:42:53;100640.03;;;22.66;61.40
72892;BME280;61032;50.782;6.818;2023-06-22T02:43:54;100640.47;;;22.64;61.27
72892;BME280;61032;50.782;6.818;2023-06-22T02:44:54;100640.84;;;22.66;61.09
72892;BME280;61032;50.782;6.818;2023-06-22T02:45:55;100631.59;;;22.69;61.34
72892;BME280;61032;50.782;6.818;2023-06-22T02:46:55;100638.00;;;22.73;61.01
72892;BME280;61032;50.782;6.818;2023-06-22T02:47:56;100630.00;;;22.79;60.80
72892;BME280;61032;50.782;6.818;2023-06-22T02:48:56;100639.59;;;22.78;60.63
72892;BME280;61032;50.782;6.818;2023-06-22T02:49:56;100633.97;;;22.81;60.70
72892;BME280;61032;50.782;6.818;2023-06-22T02:50:57;100638.78;;;22.81;60.61
72892;BME280;61032;50.782;6.818;2023-06-22T02:51:57;100635.59;;;22.75;60.80
72892;BME280;61032;50.782;6.818;2023-06-22T02:52:57;100634.41;;;22.69;61.22
72892;BME280;61032;50.782;6.818;2023-06-22T02:53:58;100637.28;;;22.62;61.40
72892;BME280;61032;50.782;6.818;2023-06-22T02:54:58;100630.88;;;22.61;61.38
72892;BME280;61032;50.782;6.818;2023-06-22T02:55:59;100632.06;;;22.64;61.17
72892;BME280;61032;50.782;6.818;2023-06-22T02:57:01;100625.25;;;22.61;61.36
72892;BME280;61032;50.782;6.818;2023-06-22T02:58:04;100630.91;;;22.54;61.40
72892;BME280;61032;50.782;6.818;2023-06-22T02:59:05;100633.31;;;22.49;61.42
72892;BME280;61032;50.782;6.818;2023-06-22T03:00:05;100632.97;;;22.43;61.88
72892;BME280;61032;50.782;6.818;2023-06-22T03:01:16;100627.38;;;22.36;62.47
72892;BME280;61032;50.782;6.818;2023-06-22T03:02:17;100628.63;;;22.28;62.29
72892;BME280;61032;50.782;6.818;2023-06-22T03:03:19;100629.03;;;22.26;62.44
72892;BME280;61032;50.782;6.818;2023-06-22T03:04:19;100623.88;;;22.18;62.36
72892;BME280;61032;50.782;6.818;2023-06-22T03:05:20;100625.06;;;22.20;62.70
72892;BME280;61032;50.782;6.818;2023-06-22T03:06:21;100622.66;;;22.19;62.77
72892;BME280;61032;50.782;6.818;2023-06-22T03:07:23;100627.81;;;22.27;62.69
72892;BME280;61032;50.782;6.818;2023-06-22T03:08:23;100615.88;;;22.20;62.35
72892;BME280;61032;50.782;6.818;2023-06-22T03:09:24;100626.28;;;22.16;63.03
72892;BME280;61032;50.782;6.818;2023-06-22T03:10:24;100615.47;;;22.14;62.83
72892;BME280;61032;50.782;6.818;2023-06-22T03:11:24;100617.88;;;22.16;62.65
72892;BME280;61032;50.782;6.818;2023-06-22T03:12:25;100613.09;;;22.13;62.76
72892;BME280;61032;50.782;6.818;2023-06-22T03:13:26;100611.09;;;22.10;63.12
72892;BME280;61032;50.782;6.818;2023-06-22T03:14:27;100606.28;;;22.07;63.20
72892;BME280;61032;50.782;6.818;2023-06-22T03:15:27;100597.91;;;21.96;63.57
72892;BME280;61032;50.782;6.818;2023-06-22T03:16:29;100603.13;;;21.98;63.67
72892;BME280;61032;50.782;6.818;2023-06-22T03:17:29;100605.91;;;21.98;63.40
72892;BME280;61032;50.782;6.818;2023-06-22T03:18:30;100595.94;;;22.00;63.25
72892;BME280;61032;50.782;6.818;2023-06-22T03:19:30;100597.50;;;21.98;63.43
72892;BME280;61032;50.782;6.818;2023-06-22T03:20:31;100604.31;;;21.97;63.36
72892;BME280;61032;50.782;6.818;2023-06-22T03:21:33;100600.72;;;21.96;63.58
72892;BME280;61032;50.782;6.818;2023-06-22T03:22:33;100594.75;;;22.01;63.43
72892;BME280;61032;50.782;6.818;2023-06-22T03:23:34;100588.28;;;22.04;63.49
72892;BME280;61032;50.782;6.818;2023-06-22T03:24:34;100590.69;;;22.06;63.40
72892;BME280;61032;50.782;6.818;2023-06-22T03:25:35;100579.88;;;22.08;63.28
72892;BME280;61032;50.782;6.818;2023-06-22T03:26:35;100582.28;;;22.06;63.23
72892;BME280;61032;50.782;6.818;2023-06-22T03:27:36;100580.72;;;22.01;63.62
72892;BME280;61032;50.782;6.818;2023-06-22T03:28:37;100578.69;;;22.05;63.46
72892;BME280;61032;50.782;6.818;2023-06-22T03:29:37;100579.94;;;22.01;63.61
72892;BME280;61032;50.782;6.818;2023-06-22T03:30:38;100578.72;;;22.02;63.48
72892;BME280;61032;50.782;6.818;2023-06-22T03:31:38;100581.09;;;22.03;63.54
72892;BME280;61032;50.782;6.818;2023-06-22T03:32:39;100575.13;;;22.01;63.53
72892;BME280;61032;50.782;6.818;2023-06-22T03:33:39;100571.13;;;22.02;63.53
72892;BME280;61032;50.782;6.818;2023-06-22T03:34:39;100567.91;;;22.04;63.73
72892;BME280;61032;50.782;6.818;2023-06-22T03:35:40;100570.69;;;22.07;63.52
72892;BME280;61032;50.782;6.818;2023-06-22T03:36:40;100572.28;;;22.05;63.28
72892;BME280;61032;50.782;6.818;2023-06-22T03:37:40;100571.47;;;22.08;63.33
72892;BME280;61032;50.782;6.818;2023-06-22T03:38:41;100578.28;;;22.10;63.12
72892;BME280;61032;50.782;6.818;2023-06-22T03:39:41;100567.88;;;22.11;63.00
72892;BME280;61032;50.782;6.818;2023-06-22T03:40:42;100564.25;;;22.17;62.95
72892;BME280;61032;50.782;6.818;2023-06-22T03:41:42;100562.25;;;22.21;62.59
72892;BME280;61032;50.782;6.818;2023-06-22T03:42:42;100565.84;;;22.22;62.49
72892;BME280;61032;50.782;6.818;2023-06-22T03:43:43;100564.66;;;22.19;62.43
72892;BME280;61032;50.782;6.818;2023-06-22T03:44:43;100577.03;;;22.22;62.41
72892;BME280;61032;50.782;6.818;2023-06-22T03:45:44;100575.03;;;22.22;62.29
72892;BME280;61032;50.782;6.818;2023-06-22T03:46:45;100576.25;;;22.21;62.29
72892;BME280;61032;50.782;6.818;2023-06-22T03:47:46;100575.41;;;22.24;61.97
72892;BME280;61032;50.782;6.818;2023-06-22T03:48:46;100585.41;;;22.25;62.17
72892;BME280;61032;50.782;6.818;2023-06-22T03:49:46;100584.25;;;22.23;62.29
72892;BME280;61032;50.782;6.818;2023-06-22T03:50:46;100579.00;;;22.25;62.33
72892;BME280;61032;50.782;6.818;2023-06-22T03:51:47;100582.66;;;22.22;62.08
72892;BME280;61032;50.782;6.818;2023-06-22T03:52:47;100582.25;;;22.20;62.38
72892;BME280;61032;50.782;6.818;2023-06-22T03:53:47;100582.25;;;22.20;62.20
72892;BME280;61032;50.782;6.818;2023-06-22T03:54:48;100578.19;;;22.24;62.36
72892;BME280;61032;50.782;6.818;2023-06-22T03:55:52;100572.19;;;22.29;62.05
72892;BME280;61032;50.782;6.818;2023-06-22T03:56:52;100576.16;;;22.32;61.81
72892;BME280;61032;50.782;6.818;2023-06-22T03:57:52;100583.38;;;22.33;61.52
72892;BME280;61032;50.782;6.818;2023-06-22T03:58:56;100572.16;;;22.37;61.41
72892;BME280;61032;50.782;6.818;2023-06-22T03:59:59;100560.53;;;22.38;61.54
72892;BME280;61032;50.782;6.818;2023-06-22T04:01:00;100561.31;;;22.42;61.53
72892;BME280;61032;50.782;6.818;2023-06-22T04:02:00;100554.94;;;22.35;61.79
72892;BME280;61032;50.782;6.818;2023-06-22T04:03:00;100553.72;;;22.39;61.38
72892;BME280;61032;50.782;6.818;2023-06-22T04:04:01;100550.53;;;22.41;61.37
72892;BME280;61032;50.782;6.818;2023-06-22T04:05:01;100544.94;;;22.37;61.63
72892;BME280;61032;50.782;6.818;2023-06-22T04:06:01;100554.13;;;22.38;61.78
72892;BME280;61032;50.782;6.818;2023-06-22T04:07:02;100541.72;;;22.42;61.71
72892;BME280;61032;50.782;6.818;2023-06-22T04:08:02;100546.84;;;22.47;61.75
72892;BME280;61032;50.782;6.818;2023-06-22T04:09:02;100544.03;;;22.51;61.44
72892;BME280;61032;50.782;6.818;2023-06-22T04:10:04;100540.44;;;22.50;61.07
72892;BME280;61032;50.782;6.818;2023-06-22T04:11:04;100537.25;;;22.48;61.32
72892;BME280;61032;50.782;6.818;2023-06-22T04:12:05;100540.03;;;22.48;61.42
72892;BME280;61032;50.782;6.818;2023-06-22T04:13:06;100540.84;;;22.45;61.79
72892;BME280;61032;50.782;6.818;2023-06-22T04:14:07;100536.44;;;22.48;62.05
72892;BME280;61032;50.782;6.818;2023-06-22T04:15:14;100542.09;;;22.44;62.08
72892;BME280;61032;50.782;6.818;2023-06-22T04:16:15;100544.47;;;22.46;62.13
72892;BME280;61032;50.782;6.818;2023-06-22T04:17:15;100554.06;;;22.48;61.89
72892;BME280;61032;50.782;6.818;2023-06-22T04:18:17;100550.03;;;22.49;62.18
72892;BME280;61032;50.782;6.818;2023-06-22T04:19:18;100556.47;;;22.46;62.58
72892;BME280;61032;50.782;6.818;2023-06-22T04:20:18;100563.34;;;22.35;63.15
72892;BME280;61032;50.782;6.818;2023-06-22T04:21:19;100566.97;;;22.32;63.58
72892;BME280;61032;50.782;6.818;2023-06-22T04:22:22;100573.78;;;22.31;63.87
72892;BME280;61032;50.782;6.818;2023-06-22T04:23:22;100581.38;;;22.34;64.08
72892;BME280;61032;50.782;6.818;2023-06-22T04:24:22;100581.38;;;22.30;64.59
72892;BME280;61032;50.782;6.818;2023-06-22T04:25:23;100583.78;;;22.28;64.93
72892;BME280;61032;50.782;6.818;2023-06-22T04:26:23;100584.69;;;22.04;66.03
72892;BME280;61032;50.782;6.818;2023-06-22T04:27:23;100586.72;;;21.96;66.54
72892;BME280;61032;50.782;6.818;2023-06-22T04:28:24;100594.38;;;21.71;67.46
72892;BME280;61032;50.782;6.818;2023-06-22T04:29:24;100589.19;;;21.62;67.69
72892;BME280;61032;50.782;6.818;2023-06-22T04:30:28;100590.44;;;21.61;68.02
72892;BME280;61032;50.782;6.818;2023-06-22T04:31:32;100600.78;;;21.64;67.86
72892;BME280;61032;50.782;6.818;2023-06-22T04:32:36;100596.38;;;21.67;68.05
72892;BME280;61032;50.782;6.818;2023-06-22T04:33:37;100602.78;;;21.71;67.49
72892;BME280;61032;50.782;6.818;2023-06-22T04:34:41;100592.78;;;21.80;67.32
72892;BME280;61032;50.782;6.818;2023-06-22T04:35:42;100600.38;;;21.80;67.15
72892;BME280;61032;50.782;6.818;2023-06-22T04:36:42;100599.94;;;21.85;67.36
72892;BME280;61032;50.782;6.818;2023-06-22T04:37:42;100596.72;;;21.93;66.79
72892;BME280;61032;50.782;6.818;2023-06-22T04:38:43;100587.91;;;21.99;66.59
72892;BME280;61032;50.782;6.818;2023-06-22T04:39:44;100599.94;;;22.03;66.34
72892;BME280;61032;50.782;6.818;2023-06-22T04:40:44;100591.91;;;22.05;66.18
72892;BME280;61032;50.782;6.818;2023-06-22T04:41:45;100594.34;;;22.03;66.15
72892;BME280;61032;50.782;6.818;2023-06-22T04:42:45;100595.53;;;22.02;65.99
72892;BME280;61032;50.782;6.818;2023-06-22T04:43:53;100597.50;;;22.05;66.21
72892;BME280;61032;50.782;6.818;2023-06-22T04:44:54;100593.50;;;22.06;65.96
72892;BME280;61032;50.782;6.818;2023-06-22T04:45:54;100590.34;;;22.00;66.06
72892;BME280;61032;50.782;6.818;2023-06-22T04:46:58;100578.31;;;22.00;66.31
72892;BME280;61032;50.782;6.818;2023-06-22T04:48:03;100583.47;;;22.15;66.13
72892;BME280;61032;50.782;6.818;2023-06-22T04:49:07;100579.78;;;22.33;65.28
72892;BME280;61032;50.782;6.818;2023-06-22T04:50:12;100569.34;;;22.40;64.82
72892;BME280;61032;50.782;6.818;2023-06-22T04:51:12;100562.06;;;22.46;64.64
72892;BME280;61032;50.782;6.818;2023-06-22T04:52:13;100567.63;;;22.53;64.73
72892;BME280;61032;50.782;6.818;2023-06-22T04:53:13;100566.88;;;22.46;64.59
72892;BME280;61032;50.782;6.818;2023-06-22T04:54:14;100571.69;;;22.45;64.67
72892;BME280;61032;50.782;6.818;2023-06-22T04:55:14;100570.94;;;22.41;64.84
72892;BME280;61032;50.782;6.818;2023-06-22T04:56:18;100567.75;;;22.36;64.97
72892;BME280;61032;50.782;6.818;2023-06-22T04:57:18;100569.75;;;22.39;65.08
72892;BME280;61032;50.782;6.818;2023-06-22T04:58:19;100565.31;;;22.41;64.84
72892;BME280;61032;50.782;6.818;2023-06-22T04:59:22;100568.56;;;22.33;64.96
72892;BME280;61032;50.782;6.818;2023-06-22T05:00:22;100581.81;;;22.25;65.48
72892;BME280;61032;50.782;6.818;2023-06-22T05:01:23;100582.19;;;22.27;65.42
72892;BME280;61032;50.782;6.818;2023-06-22T05:02:24;100583.38;;;22.29;64.97
72892;BME280;61032;50.782;6.818;2023-06-22T05:03:27;100582.97;;;22.35;65.00
72892;BME280;61032;50.782;6.818;2023-06-22T05:04:29;100583.34;;;22.40;64.39
72892;BME280;61032;50.782;6.818;2023-06-22T05:05:32;100580.09;;;22.45;64.43
72892;BME280;61032;50.782;6.818;2023-06-22T05:06:33;100593.28;;;22.48;64.28
72892;BME280;61032;50.782;6.818;2023-06-22T05:07:34;100583.69;;;22.49;64.08
72892;BME280;61032;50.782;6.818;2023-06-22T05:08:34;100585.25;;;22.54;63.95
72892;BME280;61032;50.782;6.818;2023-06-22T05:09:35;100582.03;;;22.55;64.13
72892;BME280;61032;50.782;6.818;2023-06-22T05:10:35;100579.63;;;22.57;63.84
72892;BME280;61032;50.782;6.818;2023-06-22T05:11:35;100582.00;;;22.62;63.19
72892;BME280;61032;50.782;6.818;2023-06-22T05:12:36;100578.00;;;22.63;63.45
72892;BME280;61032;50.782;6.818;2023-06-22T05:13:36;100579.59;;;22.65;63.06
72892;BME280;61032;50.782;6.818;2023-06-22T05:14:36;100582.00;;;22.62;63.18
72892;BME280;61032;50.782;6.818;2023-06-22T05:15:37;100571.22;;;22.61;63.57
72892;BME280;61032;50.782;6.818;2023-06-22T05:16:41;100566.75;;;22.67;63.38
72892;BME280;61032;50.782;6.818;2023-06-22T05:17:42;100566.41;;;22.61;63.36
72892;BME280;61032;50.782;6.818;2023-06-22T05:18:45;100565.16;;;22.66;63.58
72892;BME280;61032;50.782;6.818;2023-06-22T05:19:45;100569.19;;;22.65;63.32
72892;BME280;61032;50.782;6.818;2023-06-22T05:20:48;100569.13;;;22.69;63.54
72892;BME280;61032;50.782;6.818;2023-06-22T05:21:48;100558.69;;;22.76;63.39
72892;BME280;61032;50.782;6.818;2023-06-22T05:22:48;100570.31;;;22.78;63.13
72892;BME280;61032;50.782;6.818;2023-06-22T05:23:49;100568.72;;;22.74;63.66
72892;BME280;61032;50.782;6.818;2023-06-22T05:24:49;100572.31;;;22.71;63.48
72892;BME280;61032;50.782;6.818;2023-06-22T05:25:51;100571.94;;;22.69;63.38